»·PEaware :: N4842K KLAS-KPSP

N4842K :: KLAS-KPSP

FLIGHT INFORMATION

Flight Status: Arrived
Operator: Privately registered:
United States
More flights under this callsign
Pilot: Chris H. (14545)
Aircraft: Unknown
(P28U)
More flights by this aircraft type
Origin: KLAS McCarran Intl
United States
Destination: KPSP Palm Springs Intl
United States
More flights between these airports :: More routes between these airports
Route: CRESO V538 TNP V370 PSP
File this flight plan on PilotEdge
Remarks:
Altitude:
(Current/Filed)
10,500ft
Speed:
(Current/Filed)
175kts
Departed: 12-Jan-18 06:09 PM
Arrived: 12-Jan-18 07:15 PM
Distance/Time
Traveled:
151nm/1:06
Distance/Time
To Go:
Arrived

Flight Plot

Page will automatically refresh every two minutes.

Flight plan parsing failed; only flown route is shown


Map Options




Map Legend


Flown Route
Filed Route
Departure Airport
Arrival Airport
Navaid (VOR, NDB)
Fix

Horizontal Profiles

Position Reports

Time Latitude Longitude Heading Altitude Ground
Speed
12-Jan-18 17:58 36.082661 -115.170011 89 2163ft 0kts
12-Jan-18 17:59 36.082661 -115.170011 89 2163ft 0kts
12-Jan-18 18:00 36.082661 -115.170011 89 2163ft 0kts
12-Jan-18 18:01 36.082661 -115.170011 88 2163ft 0kts
12-Jan-18 18:02 36.082661 -115.170011 88 2163ft 0kts
12-Jan-18 18:03 36.082661 -115.170011 88 2163ft 0kts
12-Jan-18 18:04 36.082661 -115.170011 88 2163ft 0kts
12-Jan-18 18:05 36.082661 -115.170011 88 2163ft 0kts
12-Jan-18 18:06 36.082661 -115.170011 88 2163ft 0kts
12-Jan-18 18:07 36.082713 -115.169557 69 2162ft 4kts
12-Jan-18 18:08 36.083669 -115.168460 24 2158ft 8kts
12-Jan-18 18:09 36.086653 -115.166288 24 2144ft 11kts
12-Jan-18 18:10 36.089488 -115.164648 25 2132ft 13kts
12-Jan-18 18:11 36.093064 -115.162609 23 2114ft 10kts
12-Jan-18 18:12 36.096426 -115.160667 25 2099ft 16kts
12-Jan-18 18:13 36.099466 -115.158861 70 2089ft 11kts
12-Jan-18 18:14 36.099843 -115.157398 103 2084ft 0kts
12-Jan-18 18:15 36.094873 -115.159407 211 2104ft 71kts
12-Jan-18 18:16 36.073247 -115.166446 184 2966ft 83kts
12-Jan-18 18:17 36.049410 -115.168368 188 4187ft 88kts
12-Jan-18 18:18 36.024677 -115.169053 183 5350ft 90kts
12-Jan-18 18:19 35.999488 -115.168373 185 6423ft 91kts
12-Jan-18 18:20 35.973587 -115.167853 186 7419ft 96kts
12-Jan-18 18:21 35.946684 -115.167367 179 8428ft 102kts
12-Jan-18 18:22 35.915301 -115.166895 181 9370ft 115kts
12-Jan-18 18:23 35.883264 -115.166256 182 10351ft 116kts
12-Jan-18 18:24 35.843703 -115.165780 182 10534ft 173kts
12-Jan-18 18:25 35.793241 -115.165015 181 10529ft 186kts
12-Jan-18 18:26 35.741082 -115.165224 183 10529ft 188kts
12-Jan-18 18:27 35.691184 -115.166042 183 10573ft 186kts
12-Jan-18 18:28 35.639077 -115.166897 183 10575ft 188kts
12-Jan-18 18:29 35.587142 -115.167744 183 10576ft 188kts
12-Jan-18 18:30 35.534921 -115.168593 183 10576ft 188kts
12-Jan-18 18:31 35.489222 -115.169335 183 10575ft 188kts
12-Jan-18 18:32 35.436870 -115.170184 183 10573ft 188kts
12-Jan-18 18:33 35.384587 -115.171032 183 10570ft 188kts
12-Jan-18 18:34 35.333757 -115.172455 184 10562ft 189kts
12-Jan-18 18:35 35.281162 -115.173792 183 10541ft 190kts
12-Jan-18 18:36 35.228239 -115.174699 183 10520ft 190kts
12-Jan-18 18:37 35.175211 -115.175556 183 10504ft 191kts
12-Jan-18 18:38 35.122922 -115.179965 203 10498ft 186kts
12-Jan-18 18:39 35.074198 -115.201651 205 10493ft 186kts
12-Jan-18 18:40 35.025729 -115.223100 204 10488ft 185kts
12-Jan-18 18:41 34.985439 -115.240873 203 10488ft 186kts
12-Jan-18 18:42 34.928907 -115.265729 202 10488ft 185kts
12-Jan-18 18:43 34.888443 -115.283491 201 10485ft 185kts
12-Jan-18 18:44 34.832456 -115.308006 201 10485ft 183kts
12-Jan-18 18:45 34.792524 -115.325490 201 10485ft 183kts
12-Jan-18 18:46 34.736453 -115.350013 201 10485ft 183kts
12-Jan-18 18:47 34.696449 -115.367484 201 10493ft 183kts
12-Jan-18 18:48 34.640945 -115.391695 201 10540ft 182kts
12-Jan-18 18:49 34.601271 -115.408983 201 10564ft 182kts
12-Jan-18 18:50 34.554362 -115.429379 201 10107ft 165kts
12-Jan-18 18:51 34.508667 -115.449258 202 9195ft 169kts
12-Jan-18 18:52 34.468760 -115.466591 202 8611ft 158kts
12-Jan-18 18:53 34.428639 -115.483989 202 8621ft 171kts
12-Jan-18 18:54 34.383486 -115.503559 201 8620ft 173kts
12-Jan-18 18:55 34.337965 -115.523260 201 8620ft 174kts
12-Jan-18 18:56 34.300634 -115.557581 227 8620ft 170kts
12-Jan-18 18:57 34.266191 -115.596786 226 8620ft 170kts
12-Jan-18 18:58 34.231458 -115.635884 226 8620ft 170kts
12-Jan-18 18:59 34.196860 -115.674909 225 8621ft 170kts
12-Jan-18 19:00 34.162100 -115.713932 225 8621ft 170kts
12-Jan-18 19:01 34.127345 -115.752858 225 8621ft 170kts
12-Jan-18 19:02 34.101662 -115.798952 249 8621ft 166kts
12-Jan-18 19:03 34.083093 -115.850049 249 8621ft 165kts
12-Jan-18 19:04 34.064589 -115.900700 249 8609ft 165kts
12-Jan-18 19:05 34.045997 -115.951472 249 8590ft 165kts
12-Jan-18 19:06 34.027442 -116.002183 249 8572ft 165kts
12-Jan-18 19:07 34.008801 -116.053037 249 8569ft 166kts
12-Jan-18 19:08 33.990029 -116.104134 249 8550ft 167kts
12-Jan-18 19:09 33.971289 -116.155069 249 8527ft 161kts
12-Jan-18 19:10 33.953879 -116.202307 249 7772ft 154kts
12-Jan-18 19:11 33.937015 -116.247969 249 7127ft 148kts
12-Jan-18 19:12 33.920423 -116.292862 249 6546ft 145kts
12-Jan-18 19:13 33.904044 -116.337114 248 6079ft 143kts
12-Jan-18 19:14 33.886624 -116.379729 244 5618ft 141kts
12-Jan-18 19:15 33.870474 -116.416020 243 4374ft 110kts
12-Jan-18 19:16 33.860141 -116.451360 257 3872ft 105kts
12-Jan-18 19:17 33.848802 -116.477187 206 2658ft 91kts
12-Jan-18 19:18 33.822432 -116.473592 143 2382ft 108kts
12-Jan-18 19:19 33.801655 -116.467765 259 2045ft 105kts
12-Jan-18 19:20 33.813844 -116.490576 316 785ft 85kts
12-Jan-18 19:21 33.829214 -116.504390 323 418ft 23kts
12-Jan-18 19:22 33.829032 -116.503234 142 416ft 13kts
12-Jan-18 19:23 33.825341 -116.499981 141 403ft 18kts
12-Jan-18 19:24 33.824485 -116.498559 229 399ft 0kts

Navigation Log

Ident Type
Flight plan parsing failed, navigation log unavailable